sensor_id;sensor_type;location;lat;lon;timestamp;temperature;humidity
20147;DHT22;10234;50.856;15.716;2022-09-09T00:00:14;10.90;99.90
20147;DHT22;10234;50.856;15.716;2022-09-09T00:02:46;11.00;99.90
20147;DHT22;10234;50.856;15.716;2022-09-09T00:05:19;10.90;99.90
20147;DHT22;10234;50.856;15.716;2022-09-09T00:07:51;10.90;99.90
20147;DHT22;10234;50.856;15.716;2022-09-09T00:10:23;10.90;99.90
20147;DHT22;10234;50.856;15.716;2022-09-09T00:12:55;10.80;99.90
20147;DHT22;10234;50.856;15.716;2022-09-09T00:15:26;10.70;99.90
20147;DHT22;10234;50.856;15.716;2022-09-09T00:18:02;10.70;99.90
20147;DHT22;10234;50.856;15.716;2022-09-09T00:20:37;10.30;99.90
20147;DHT22;10234;50.856;15.716;2022-09-09T00:23:12;10.50;99.90
20147;DHT22;10234;50.856;15.716;2022-09-09T00:25:51;10.60;99.90
20147;DHT22;10234;50.856;15.716;2022-09-09T00:28:23;10.50;99.90
20147;DHT22;10234;50.856;15.716;2022-09-09T00:30:51;10.50;99.90
20147;DHT22;10234;50.856;15.716;2022-09-09T00:33:23;10.60;99.90
20147;DHT22;10234;50.856;15.716;2022-09-09T00:35:53;10.40;99.90
20147;DHT22;10234;50.856;15.716;2022-09-09T00:38:25;10.40;99.90
20147;DHT22;10234;50.856;15.716;2022-09-09T00:40:56;10.30;99.90
20147;DHT22;10234;50.856;15.716;2022-09-09T00:43:28;10.30;99.90
20147;DHT22;10234;50.856;15.716;2022-09-09T00:46:18;10.30;99.90
20147;DHT22;10234;50.856;15.716;2022-09-09T00:48:57;10.30;99.90
20147;DHT22;10234;50.856;15.716;2022-09-09T00:51:34;10.30;99.90
20147;DHT22;10234;50.856;15.716;2022-09-09T00:54:22;10.30;99.90
20147;DHT22;10234;50.856;15.716;2022-09-09T00:57:01;10.30;99.90
20147;DHT22;10234;50.856;15.716;2022-09-09T00:59:39;10.30;99.90
20147;DHT22;10234;50.856;15.716;2022-09-09T01:02:15;10.30;99.90
20147;DHT22;10234;50.856;15.716;2022-09-09T01:04:45;10.20;99.90
20147;DHT22;10234;50.856;15.716;2022-09-09T01:07:16;10.20;99.90
20147;DHT22;10234;50.856;15.716;2022-09-09T01:09:52;10.10;99.90
20147;DHT22;10234;50.856;15.716;2022-09-09T01:12:26;10.20;99.90
20147;DHT22;10234;50.856;15.716;2022-09-09T01:15:03;10.10;99.90
20147;DHT22;10234;50.856;15.716;2022-09-09T01:17:53;10.20;99.90
20147;DHT22;10234;50.856;15.716;2022-09-09T01:20:27;10.10;99.90
20147;DHT22;10234;50.856;15.716;2022-09-09T01:26:13;10.10;99.90
20147;DHT22;10234;50.856;15.716;2022-09-09T01:28:44;10.00;99.90
20147;DHT22;10234;50.856;15.716;2022-09-09T01:31:15;10.00;99.90
20147;DHT22;10234;50.856;15.716;2022-09-09T01:33:43;10.00;99.90
20147;DHT22;10234;50.856;15.716;2022-09-09T01:36:13;10.00;99.90
20147;DHT22;10234;50.856;15.716;2022-09-09T01:38:42;9.90;99.90
20147;DHT22;10234;50.856;15.716;2022-09-09T01:41:10;9.90;99.90
20147;DHT22;10234;50.856;15.716;2022-09-09T01:43:37;9.90;99.90
20147;DHT22;10234;50.856;15.716;2022-09-09T01:46:04;9.80;99.90
20147;DHT22;10234;50.856;15.716;2022-09-09T01:48:31;9.80;99.90
20147;DHT22;10234;50.856;15.716;2022-09-09T01:50:58;9.80;99.90
20147;DHT22;10234;50.856;15.716;2022-09-09T01:53:25;9.70;99.90
20147;DHT22;10234;50.856;15.716;2022-09-09T01:56:01;9.70;99.90
20147;DHT22;10234;50.856;15.716;2022-09-09T01:58:38;9.60;99.90
20147;DHT22;10234;50.856;15.716;2022-09-09T02:01:15;9.60;99.90
20147;DHT22;10234;50.856;15.716;2022-09-09T02:03:49;9.60;99.90
20147;DHT22;10234;50.856;15.716;2022-09-09T02:06:25;9.50;99.90
20147;DHT22;10234;50.856;15.716;2022-09-09T02:08:55;9.50;99.90
20147;DHT22;10234;50.856;15.716;2022-09-09T02:11:24;10.10;99.90
20147;DHT22;10234;50.856;15.716;2022-09-09T02:13:56;9.30;99.90
20147;DHT22;10234;50.856;15.716;2022-09-09T02:16:26;9.30;99.90
20147;DHT22;10234;50.856;15.716;2022-09-09T02:18:57;9.30;99.90
20147;DHT22;10234;50.856;15.716;2022-09-09T02:21:27;9.20;99.90
20147;DHT22;10234;50.856;15.716;2022-09-09T02:23:57;9.20;99.90
20147;DHT22;10234;50.856;15.716;2022-09-09T02:26:26;9.20;99.90
20147;DHT22;10234;50.856;15.716;2022-09-09T02:28:56;9.10;99.90
20147;DHT22;10234;50.856;15.716;2022-09-09T02:31:25;9.10;99.90
20147;DHT22;10234;50.856;15.716;2022-09-09T02:33:55;8.90;99.90
20147;DHT22;10234;50.856;15.716;2022-09-09T02:36:24;8.90;99.90
20147;DHT22;10234;50.856;15.716;2022-09-09T02:38:51;8.90;99.90
20147;DHT22;10234;50.856;15.716;2022-09-09T02:41:21;8.90;99.90
20147;DHT22;10234;50.856;15.716;2022-09-09T02:43:50;9.00;99.90
20147;DHT22;10234;50.856;15.716;2022-09-09T02:46:28;9.00;99.90
20147;DHT22;10234;50.856;15.716;2022-09-09T02:49:01;9.00;99.90
20147;DHT22;10234;50.856;15.716;2022-09-09T02:51:34;9.10;99.90
20147;DHT22;10234;50.856;15.716;2022-09-09T02:54:10;9.10;99.90
20147;DHT22;10234;50.856;15.716;2022-09-09T02:56:46;9.30;99.90
20147;DHT22;10234;50.856;15.716;2022-09-09T02:59:15;9.40;99.90
20147;DHT22;10234;50.856;15.716;2022-09-09T03:01:44;9.30;99.90
20147;DHT22;10234;50.856;15.716;2022-09-09T03:04:12;9.20;99.90
20147;DHT22;10234;50.856;15.716;2022-09-09T03:06:39;9.10;99.90
20147;DHT22;10234;50.856;15.716;2022-09-09T03:09:06;9.00;99.90
20147;DHT22;10234;50.856;15.716;2022-09-09T03:11:35;9.00;99.90
20147;DHT22;10234;50.856;15.716;2022-09-09T03:14:04;9.10;99.90
20147;DHT22;10234;50.856;15.716;2022-09-09T03:16:31;8.60;99.90
20147;DHT22;10234;50.856;15.716;2022-09-09T03:19:00;8.80;99.90
20147;DHT22;10234;50.856;15.716;2022-09-09T03:21:27;8.70;99.90
20147;DHT22;10234;50.856;15.716;2022-09-09T03:23:54;8.70;99.90
20147;DHT22;10234;50.856;15.716;2022-09-09T03:26:21;8.70;99.90
20147;DHT22;10234;50.856;15.716;2022-09-09T03:28:48;8.90;99.90
20147;DHT22;10234;50.856;15.716;2022-09-09T03:31:17;8.60;99.90
20147;DHT22;10234;50.856;15.716;2022-09-09T03:33:45;8.90;99.90
20147;DHT22;10234;50.856;15.716;2022-09-09T03:36:13;8.60;99.90
20147;DHT22;10234;50.856;15.716;2022-09-09T03:38:40;8.80;99.90
20147;DHT22;10234;50.856;15.716;2022-09-09T03:41:07;8.50;99.90
20147;DHT22;10234;50.856;15.716;2022-09-09T03:43:34;8.40;99.90
20147;DHT22;10234;50.856;15.716;2022-09-09T03:46:03;8.60;99.90
20147;DHT22;10234;50.856;15.716;2022-09-09T03:48:30;8.60;99.90
20147;DHT22;10234;50.856;15.716;2022-09-09T03:50:57;10.30;99.90
20147;DHT22;10234;50.856;15.716;2022-09-09T03:53:28;8.60;99.90
20147;DHT22;10234;50.856;15.716;2022-09-09T03:55:56;8.60;99.90
20147;DHT22;10234;50.856;15.716;2022-09-09T03:58:26;8.60;99.90
20147;DHT22;10234;50.856;15.716;2022-09-09T04:00:54;8.60;99.90
20147;DHT22;10234;50.856;15.716;2022-09-09T04:03:22;8.80;99.90
20147;DHT22;10234;50.856;15.716;2022-09-09T04:05:50;8.90;99.90
20147;DHT22;10234;50.856;15.716;2022-09-09T04:08:17;8.60;99.90
20147;DHT22;10234;50.856;15.716;2022-09-09T04:10:46;8.60;99.90
20147;DHT22;10234;50.856;15.716;2022-09-09T04:13:13;8.60;99.90
20147;DHT22;10234;50.856;15.716;2022-09-09T04:15:41;8.60;99.90
20147;DHT22;10234;50.856;15.716;2022-09-09T04:18:09;8.60;99.90
20147;DHT22;10234;50.856;15.716;2022-09-09T04:20:37;8.50;99.90
20147;DHT22;10234;50.856;15.716;2022-09-09T04:23:04;8.60;99.90
20147;DHT22;10234;50.856;15.716;2022-09-09T04:25:30;8.60;99.90
20147;DHT22;10234;50.856;15.716;2022-09-09T04:28:00;8.60;99.90
20147;DHT22;10234;50.856;15.716;2022-09-09T04:30:28;8.60;99.90
20147;DHT22;10234;50.856;15.716;2022-09-09T04:32:54;8.50;99.90
20147;DHT22;10234;50.856;15.716;2022-09-09T04:35:21;8.90;99.90
20147;DHT22;10234;50.856;15.716;2022-09-09T04:37:48;8.50;99.90
20147;DHT22;10234;50.856;15.716;2022-09-09T04:40:15;8.40;99.90
20147;DHT22;10234;50.856;15.716;2022-09-09T04:42:42;8.40;99.90
20147;DHT22;10234;50.856;15.716;2022-09-09T04:45:10;8.20;99.90
20147;DHT22;10234;50.856;15.716;2022-09-09T04:47:39;8.40;99.90
20147;DHT22;10234;50.856;15.716;2022-09-09T04:50:07;8.60;99.90
20147;DHT22;10234;50.856;15.716;2022-09-09T04:52:34;8.50;99.90
20147;DHT22;10234;50.856;15.716;2022-09-09T04:55:01;8.70;99.90
20147;DHT22;10234;50.856;15.716;2022-09-09T04:57:28;8.70;99.90
20147;DHT22;10234;50.856;15.716;2022-09-09T04:59:57;8.70;99.90
20147;DHT22;10234;50.856;15.716;2022-09-09T05:02:26;8.80;99.90
20147;DHT22;10234;50.856;15.716;2022-09-09T05:04:53;9.00;99.90
20147;DHT22;10234;50.856;15.716;2022-09-09T05:07:20;9.10;99.90
20147;DHT22;10234;50.856;15.716;2022-09-09T05:09:47;9.50;99.90
20147;DHT22;10234;50.856;15.716;2022-09-09T05:12:15;9.60;99.90
20147;DHT22;10234;50.856;15.716;2022-09-09T05:14:42;9.80;99.90
20147;DHT22;10234;50.856;15.716;2022-09-09T05:17:10;10.00;99.90
20147;DHT22;10234;50.856;15.716;2022-09-09T05:19:38;10.10;99.90
20147;DHT22;10234;50.856;15.716;2022-09-09T05:22:05;10.30;99.90
20147;DHT22;10234;50.856;15.716;2022-09-09T05:24:32;10.60;99.90
20147;DHT22;10234;50.856;15.716;2022-09-09T05:26:59;10.70;99.90
20147;DHT22;10234;50.856;15.716;2022-09-09T05:29:28;11.10;99.90
20147;DHT22;10234;50.856;15.716;2022-09-09T05:31:54;11.50;99.90
20147;DHT22;10234;50.856;15.716;2022-09-09T05:34:21;11.90;99.90
20147;DHT22;10234;50.856;15.716;2022-09-09T05:36:49;12.10;99.90
20147;DHT22;10234;50.856;15.716;2022-09-09T05:39:17;12.60;99.90
20147;DHT22;10234;50.856;15.716;2022-09-09T05:41:43;13.90;99.90
20147;DHT22;10234;50.856;15.716;2022-09-09T05:44:10;13.90;99.90
20147;DHT22;10234;50.856;15.716;2022-09-09T05:46:37;13.80;99.90
20147;DHT22;10234;50.856;15.716;2022-09-09T05:49:04;13.70;99.90
20147;DHT22;10234;50.856;15.716;2022-09-09T05:51:31;13.30;99.90
20147;DHT22;10234;50.856;15.716;2022-09-09T05:54:00;13.30;99.90
20147;DHT22;10234;50.856;15.716;2022-09-09T05:56:28;13.20;99.90
20147;DHT22;10234;50.856;15.716;2022-09-09T05:58:55;13.10;99.90
20147;DHT22;10234;50.856;15.716;2022-09-09T06:01:25;13.40;99.90
20147;DHT22;10234;50.856;15.716;2022-09-09T06:03:53;13.60;99.90
20147;DHT22;10234;50.856;15.716;2022-09-09T06:06:21;14.00;99.90
20147;DHT22;10234;50.856;15.716;2022-09-09T06:08:50;15.10;99.90
20147;DHT22;10234;50.856;15.716;2022-09-09T06:11:21;15.90;99.90
20147;DHT22;10234;50.856;15.716;2022-09-09T06:13:48;16.20;99.90
20147;DHT22;10234;50.856;15.716;2022-09-09T06:16:18;16.30;99.90
20147;DHT22;10234;50.856;15.716;2022-09-09T06:18:46;16.30;99.90
20147;DHT22;10234;50.856;15.716;2022-09-09T06:21:16;16.20;99.90
20147;DHT22;10234;50.856;15.716;2022-09-09T06:23:43;16.30;99.90
20147;DHT22;10234;50.856;15.716;2022-09-09T06:26:12;16.50;99.90
20147;DHT22;10234;50.856;15.716;2022-09-09T06:28:41;16.30;99.90
20147;DHT22;10234;50.856;15.716;2022-09-09T06:31:09;16.00;99.90
20147;DHT22;10234;50.856;15.716;2022-09-09T06:33:38;16.30;99.90
20147;DHT22;10234;50.856;15.716;2022-09-09T06:36:07;16.70;99.90
20147;DHT22;10234;50.856;15.716;2022-09-09T06:38:36;17.60;99.90
20147;DHT22;10234;50.856;15.716;2022-09-09T06:41:04;18.10;99.90
20147;DHT22;10234;50.856;15.716;2022-09-09T06:43:31;19.00;99.90
20147;DHT22;10234;50.856;15.716;2022-09-09T06:46:02;19.60;99.90
20147;DHT22;10234;50.856;15.716;2022-09-09T06:48:29;20.20;99.90
20147;DHT22;10234;50.856;15.716;2022-09-09T06:51:04;20.70;99.90
20147;DHT22;10234;50.856;15.716;2022-09-09T06:53:32;20.70;99.90
20147;DHT22;10234;50.856;15.716;2022-09-09T06:56:00;20.70;99.90
20147;DHT22;10234;50.856;15.716;2022-09-09T06:58:27;21.20;99.90
20147;DHT22;10234;50.856;15.716;2022-09-09T07:01:03;22.10;99.90
20147;DHT22;10234;50.856;15.716;2022-09-09T07:03:29;21.90;99.90
20147;DHT22;10234;50.856;15.716;2022-09-09T07:08:25;22.60;99.90
20147;DHT22;10234;50.856;15.716;2022-09-09T07:10:52;22.60;99.90
20147;DHT22;10234;50.856;15.716;2022-09-09T07:13:19;22.80;99.90
20147;DHT22;10234;50.856;15.716;2022-09-09T07:15:49;23.00;99.90
20147;DHT22;10234;50.856;15.716;2022-09-09T07:18:17;22.40;99.90
20147;DHT22;10234;50.856;15.716;2022-09-09T07:20:53;21.80;99.90
20147;DHT22;10234;50.856;15.716;2022-09-09T07:23:20;21.40;99.90
20147;DHT22;10234;50.856;15.716;2022-09-09T07:25:47;21.00;99.90
20147;DHT22;10234;50.856;15.716;2022-09-09T07:28:14;20.50;99.90
20147;DHT22;10234;50.856;15.716;2022-09-09T07:30:41;20.30;99.90
20147;DHT22;10234;50.856;15.716;2022-09-09T07:33:08;20.60;99.90
20147;DHT22;10234;50.856;15.716;2022-09-09T07:35:37;20.50;99.90
20147;DHT22;10234;50.856;15.716;2022-09-09T07:38:04;20.30;99.90
20147;DHT22;10234;50.856;15.716;2022-09-09T07:40:32;20.40;99.90
20147;DHT22;10234;50.856;15.716;2022-09-09T07:42:59;21.30;99.90
20147;DHT22;10234;50.856;15.716;2022-09-09T07:45:26;21.40;99.90
20147;DHT22;10234;50.856;15.716;2022-09-09T07:47:53;21.70;99.90
20147;DHT22;10234;50.856;15.716;2022-09-09T07:50:22;22.10;99.90
20147;DHT22;10234;50.856;15.716;2022-09-09T07:52:50;23.10;99.90
20147;DHT22;10234;50.856;15.716;2022-09-09T07:55:17;24.30;99.90
20147;DHT22;10234;50.856;15.716;2022-09-09T07:57:45;25.10;99.90
20147;DHT22;10234;50.856;15.716;2022-09-09T08:00:13;26.00;99.90
20147;DHT22;10234;50.856;15.716;2022-09-09T08:02:40;26.80;98.30
20147;DHT22;10234;50.856;15.716;2022-09-09T08:05:07;27.80;95.20
20147;DHT22;10234;50.856;15.716;2022-09-09T08:07:34;28.50;91.60
20147;DHT22;10234;50.856;15.716;2022-09-09T08:10:03;29.20;88.30
20147;DHT22;10234;50.856;15.716;2022-09-09T08:12:30;29.50;84.60
20147;DHT22;10234;50.856;15.716;2022-09-09T08:14:57;29.90;83.60
20147;DHT22;10234;50.856;15.716;2022-09-09T08:17:24;30.50;78.00
20147;DHT22;10234;50.856;15.716;2022-09-09T08:19:51;31.20;75.70
20147;DHT22;10234;50.856;15.716;2022-09-09T08:22:19;31.80;70.60
20147;DHT22;10234;50.856;15.716;2022-09-09T08:24:47;32.80;69.50
20147;DHT22;10234;50.856;15.716;2022-09-09T08:27:15;33.90;64.50
20147;DHT22;10234;50.856;15.716;2022-09-09T08:29:42;34.40;64.70
20147;DHT22;10234;50.856;15.716;2022-09-09T08:32:09;34.50;63.30
20147;DHT22;10234;50.856;15.716;2022-09-09T08:34:35;34.40;59.70
20147;DHT22;10234;50.856;15.716;2022-09-09T08:37:02;34.60;57.90
20147;DHT22;10234;50.856;15.716;2022-09-09T08:39:29;34.30;58.10
20147;DHT22;10234;50.856;15.716;2022-09-09T08:42:08;34.30;56.30
20147;DHT22;10234;50.856;15.716;2022-09-09T08:48:01;35.30;57.30
20147;DHT22;10234;50.856;15.716;2022-09-09T08:50:32;35.00;52.00
20147;DHT22;10234;50.856;15.716;2022-09-09T08:53:02;34.10;51.40
20147;DHT22;10234;50.856;15.716;2022-09-09T08:55:38;34.40;54.40
20147;DHT22;10234;50.856;15.716;2022-09-09T08:58:12;30.60;56.60
20147;DHT22;10234;50.856;15.716;2022-09-09T09:00:54;29.70;58.30
20147;DHT22;10234;50.856;15.716;2022-09-09T09:03:30;31.20;60.20
20147;DHT22;10234;50.856;15.716;2022-09-09T09:06:06;31.80;56.20
20147;DHT22;10234;50.856;15.716;2022-09-09T09:08:41;31.20;55.10
20147;DHT22;10234;50.856;15.716;2022-09-09T09:11:10;30.30;58.60
20147;DHT22;10234;50.856;15.716;2022-09-09T09:13:43;28.80;62.10
20147;DHT22;10234;50.856;15.716;2022-09-09T09:16:19;29.90;71.80
20147;DHT22;10234;50.856;15.716;2022-09-09T09:18:48;30.10;65.70
20147;DHT22;10234;50.856;15.716;2022-09-09T09:21:19;30.70;61.60
20147;DHT22;10234;50.856;15.716;2022-09-09T09:23:55;30.20;61.30
20147;DHT22;10234;50.856;15.716;2022-09-09T09:26:24;29.10;61.80
20147;DHT22;10234;50.856;15.716;2022-09-09T09:28:55;28.20;67.00
20147;DHT22;10234;50.856;15.716;2022-09-09T09:31:24;29.20;67.70
20147;DHT22;10234;50.856;15.716;2022-09-09T09:33:53;30.60;64.50
20147;DHT22;10234;50.856;15.716;2022-09-09T09:36:24;32.30;59.20
20147;DHT22;10234;50.856;15.716;2022-09-09T09:38:53;33.70;56.80
20147;DHT22;10234;50.856;15.716;2022-09-09T09:41:29;34.60;53.20
20147;DHT22;10234;50.856;15.716;2022-09-09T09:43:56;36.10;53.70
20147;DHT22;10234;50.856;15.716;2022-09-09T09:46:25;37.10;51.00
20147;DHT22;10234;50.856;15.716;2022-09-09T09:48:59;37.20;48.30
20147;DHT22;10234;50.856;15.716;2022-09-09T09:51:26;37.30;51.10
20147;DHT22;10234;50.856;15.716;2022-09-09T09:53:54;37.90;45.90
20147;DHT22;10234;50.856;15.716;2022-09-09T09:56:29;37.80;45.20
20147;DHT22;10234;50.856;15.716;2022-09-09T09:58:57;38.40;46.00
20147;DHT22;10234;50.856;15.716;2022-09-09T10:01:27;38.40;47.60
20147;DHT22;10234;50.856;15.716;2022-09-09T10:03:58;37.90;46.70
20147;DHT22;10234;50.856;15.716;2022-09-09T10:06:32;37.90;47.20
20147;DHT22;10234;50.856;15.716;2022-09-09T10:09:01;38.60;43.70
20147;DHT22;10234;50.856;15.716;2022-09-09T10:11:46;38.70;41.90
20147;DHT22;10234;50.856;15.716;2022-09-09T10:14:20;39.10;41.00
20147;DHT22;10234;50.856;15.716;2022-09-09T10:17:00;38.20;41.60
20147;DHT22;10234;50.856;15.716;2022-09-09T10:19:31;38.60;41.70
20147;DHT22;10234;50.856;15.716;2022-09-09T10:22:23;39.10;41.50
20147;DHT22;10234;50.856;15.716;2022-09-09T10:25:19;38.40;42.00
20147;DHT22;10234;50.856;15.716;2022-09-09T10:28:08;39.00;40.70
20147;DHT22;10234;50.856;15.716;2022-09-09T10:30:44;38.70;42.40
20147;DHT22;10234;50.856;15.716;2022-09-09T10:33:19;39.00;41.80
20147;DHT22;10234;50.856;15.716;2022-09-09T10:35:54;38.90;40.90
20147;DHT22;10234;50.856;15.716;2022-09-09T10:38:30;38.90;41.60
20147;DHT22;10234;50.856;15.716;2022-09-09T10:41:11;38.10;41.90
20147;DHT22;10234;50.856;15.716;2022-09-09T10:43:51;38.10;41.30
20147;DHT22;10234;50.856;15.716;2022-09-09T10:46:29;38.20;41.80
20147;DHT22;10234;50.856;15.716;2022-09-09T10:49:11;37.50;48.20
20147;DHT22;10234;50.856;15.716;2022-09-09T10:51:45;37.70;44.00
20147;DHT22;10234;50.856;15.716;2022-09-09T10:54:31;37.90;41.80
20147;DHT22;10234;50.856;15.716;2022-09-09T10:57:08;38.50;41.60
20147;DHT22;10234;50.856;15.716;2022-09-09T10:59:40;38.00;43.50
20147;DHT22;10234;50.856;15.716;2022-09-09T11:02:15;37.60;45.50
20147;DHT22;10234;50.856;15.716;2022-09-09T11:04:49;37.70;43.90
20147;DHT22;10234;50.856;15.716;2022-09-09T11:07:25;37.60;44.70
20147;DHT22;10234;50.856;15.716;2022-09-09T11:09:59;37.20;44.60
20147;DHT22;10234;50.856;15.716;2022-09-09T11:12:28;35.70;48.90
20147;DHT22;10234;50.856;15.716;2022-09-09T11:14:59;36.10;46.00
20147;DHT22;10234;50.856;15.716;2022-09-09T11:17:35;36.00;46.60
20147;DHT22;10234;50.856;15.716;2022-09-09T11:20:11;35.60;44.40
20147;DHT22;10234;50.856;15.716;2022-09-09T11:22:44;34.10;45.90
20147;DHT22;10234;50.856;15.716;2022-09-09T11:25:16;33.10;47.50
20147;DHT22;10234;50.856;15.716;2022-09-09T11:27:55;31.90;47.60
20147;DHT22;10234;50.856;15.716;2022-09-09T11:30:27;31.20;49.00
20147;DHT22;10234;50.856;15.716;2022-09-09T11:33:20;30.40;49.90
20147;DHT22;10234;50.856;15.716;2022-09-09T11:39:00;29.00;53.80
20147;DHT22;10234;50.856;15.716;2022-09-09T11:41:34;28.40;64.20
20147;DHT22;10234;50.856;15.716;2022-09-09T11:44:10;28.10;54.40
20147;DHT22;10234;50.856;15.716;2022-09-09T11:46:38;27.90;56.00
20147;DHT22;10234;50.856;15.716;2022-09-09T11:49:26;27.90;59.60
20147;DHT22;10234;50.856;15.716;2022-09-09T11:51:55;28.00;60.60
20147;DHT22;10234;50.856;15.716;2022-09-09T11:54:30;28.00;58.90
20147;DHT22;10234;50.856;15.716;2022-09-09T11:56:57;27.90;59.70
20147;DHT22;10234;50.856;15.716;2022-09-09T11:59:27;28.00;61.30
20147;DHT22;10234;50.856;15.716;2022-09-09T12:01:56;28.30;58.90
20147;DHT22;10234;50.856;15.716;2022-09-09T12:04:33;28.40;56.20
20147;DHT22;10234;50.856;15.716;2022-09-09T12:07:05;28.10;58.20
20147;DHT22;10234;50.856;15.716;2022-09-09T12:09:49;28.20;58.80
20147;DHT22;10234;50.856;15.716;2022-09-09T12:12:30;28.10;56.60
20147;DHT22;10234;50.856;15.716;2022-09-09T12:15:22;27.70;56.90
20147;DHT22;10234;50.856;15.716;2022-09-09T12:17:53;27.80;55.30
20147;DHT22;10234;50.856;15.716;2022-09-09T12:20:21;27.70;57.90
20147;DHT22;10234;50.856;15.716;2022-09-09T12:23:08;27.30;55.50
20147;DHT22;10234;50.856;15.716;2022-09-09T12:25:58;27.00;57.40
20147;DHT22;10234;50.856;15.716;2022-09-09T12:28:39;27.00;55.70
20147;DHT22;10234;50.856;15.716;2022-09-09T12:31:12;26.90;56.80
20147;DHT22;10234;50.856;15.716;2022-09-09T12:33:44;27.20;57.10
20147;DHT22;10234;50.856;15.716;2022-09-09T12:36:15;27.40;57.70
20147;DHT22;10234;50.856;15.716;2022-09-09T12:38:45;27.00;56.40
20147;DHT22;10234;50.856;15.716;2022-09-09T12:41:20;26.70;56.30
20147;DHT22;10234;50.856;15.716;2022-09-09T12:43:47;26.40;57.20
20147;DHT22;10234;50.856;15.716;2022-09-09T12:46:22;26.40;56.20
20147;DHT22;10234;50.856;15.716;2022-09-09T12:48:52;26.50;56.60
20147;DHT22;10234;50.856;15.716;2022-09-09T12:51:24;26.70;55.70
20147;DHT22;10234;50.856;15.716;2022-09-09T12:53:54;26.60;55.80
20147;DHT22;10234;50.856;15.716;2022-09-09T12:56:23;26.20;56.10
20147;DHT22;10234;50.856;15.716;2022-09-09T12:58:53;26.00;58.10
20147;DHT22;10234;50.856;15.716;2022-09-09T13:01:22;25.90;57.00
20147;DHT22;10234;50.856;15.716;2022-09-09T13:03:50;25.50;58.70
20147;DHT22;10234;50.856;15.716;2022-09-09T13:06:21;25.40;58.30
20147;DHT22;10234;50.856;15.716;2022-09-09T13:08:48;25.30;75.10
20147;DHT22;10234;50.856;15.716;2022-09-09T13:11:19;25.00;65.30
20147;DHT22;10234;50.856;15.716;2022-09-09T13:13:51;24.80;67.20
20147;DHT22;10234;50.856;15.716;2022-09-09T13:16:21;24.50;67.90
20147;DHT22;10234;50.856;15.716;2022-09-09T13:18:49;24.20;66.90
20147;DHT22;10234;50.856;15.716;2022-09-09T13:21:17;24.00;65.40
20147;DHT22;10234;50.856;15.716;2022-09-09T13:23:49;23.90;69.80
20147;DHT22;10234;50.856;15.716;2022-09-09T13:26:24;24.00;67.80
20147;DHT22;10234;50.856;15.716;2022-09-09T13:28:53;23.80;68.10
20147;DHT22;10234;50.856;15.716;2022-09-09T13:31:22;23.60;71.10
20147;DHT22;10234;50.856;15.716;2022-09-09T13:33:50;23.70;68.30
20147;DHT22;10234;50.856;15.716;2022-09-09T13:36:28;23.60;67.30
20147;DHT22;10234;50.856;15.716;2022-09-09T13:38:56;23.40;69.80
20147;DHT22;10234;50.856;15.716;2022-09-09T13:41:29;23.30;70.00
20147;DHT22;10234;50.856;15.716;2022-09-09T13:43:57;23.20;74.30
20147;DHT22;10234;50.856;15.716;2022-09-09T13:46:28;23.10;72.00
20147;DHT22;10234;50.856;15.716;2022-09-09T13:48:56;23.00;73.90
20147;DHT22;10234;50.856;15.716;2022-09-09T13:51:32;22.70;73.20
20147;DHT22;10234;50.856;15.716;2022-09-09T13:53:59;22.60;73.50
20147;DHT22;10234;50.856;15.716;2022-09-09T13:56:28;22.40;74.50
20147;DHT22;10234;50.856;15.716;2022-09-09T13:58:54;22.40;75.70
20147;DHT22;10234;50.856;15.716;2022-09-09T14:01:23;22.20;76.60
20147;DHT22;10234;50.856;15.716;2022-09-09T14:03:49;22.20;82.40
20147;DHT22;10234;50.856;15.716;2022-09-09T14:06:18;22.00;83.00
20147;DHT22;10234;50.856;15.716;2022-09-09T14:08:47;21.90;89.50
20147;DHT22;10234;50.856;15.716;2022-09-09T14:11:14;21.90;85.70
20147;DHT22;10234;50.856;15.716;2022-09-09T14:13:42;21.80;90.70
20147;DHT22;10234;50.856;15.716;2022-09-09T14:16:10;21.80;94.40
20147;DHT22;10234;50.856;15.716;2022-09-09T14:18:37;21.80;94.40
20147;DHT22;10234;50.856;15.716;2022-09-09T14:21:04;21.70;93.60
20147;DHT22;10234;50.856;15.716;2022-09-09T14:23:31;21.70;97.10
20147;DHT22;10234;50.856;15.716;2022-09-09T14:25:58;21.60;98.50
20147;DHT22;10234;50.856;15.716;2022-09-09T14:28:25;21.80;99.90
20147;DHT22;10234;50.856;15.716;2022-09-09T14:30:53;21.40;99.90
20147;DHT22;10234;50.856;15.716;2022-09-09T14:33:20;21.40;99.90
20147;DHT22;10234;50.856;15.716;2022-09-09T14:35:46;21.40;99.90
20147;DHT22;10234;50.856;15.716;2022-09-09T14:38:14;21.20;99.90
20147;DHT22;10234;50.856;15.716;2022-09-09T14:40:40;21.10;99.90
20147;DHT22;10234;50.856;15.716;2022-09-09T14:43:11;21.00;99.90
20147;DHT22;10234;50.856;15.716;2022-09-09T14:45:39;20.80;99.90
20147;DHT22;10234;50.856;15.716;2022-09-09T14:48:07;20.70;99.90
20147;DHT22;10234;50.856;15.716;2022-09-09T14:53:05;20.60;99.90
20147;DHT22;10234;50.856;15.716;2022-09-09T14:57:59;20.60;99.90
20147;DHT22;10234;50.856;15.716;2022-09-09T15:02:53;20.50;99.90
20147;DHT22;10234;50.856;15.716;2022-09-09T15:05:22;20.50;99.90
20147;DHT22;10234;50.856;15.716;2022-09-09T15:07:49;20.50;99.90
20147;DHT22;10234;50.856;15.716;2022-09-09T15:10:16;20.50;99.90
20147;DHT22;10234;50.856;15.716;2022-09-09T15:12:43;20.70;99.90
20147;DHT22;10234;50.856;15.716;2022-09-09T15:15:10;20.70;99.90
20147;DHT22;10234;50.856;15.716;2022-09-09T15:17:38;20.70;99.90
20147;DHT22;10234;50.856;15.716;2022-09-09T15:20:05;20.60;99.90
20147;DHT22;10234;50.856;15.716;2022-09-09T15:22:34;20.60;99.90
20147;DHT22;10234;50.856;15.716;2022-09-09T15:25:02;20.60;99.90
20147;DHT22;10234;50.856;15.716;2022-09-09T15:27:29;20.60;99.90
20147;DHT22;10234;50.856;15.716;2022-09-09T15:29:56;20.60;99.90
20147;DHT22;10234;50.856;15.716;2022-09-09T15:32:24;20.50;99.90
20147;DHT22;10234;50.856;15.716;2022-09-09T15:34:51;20.50;99.90
20147;DHT22;10234;50.856;15.716;2022-09-09T15:37:18;20.40;99.90
20147;DHT22;10234;50.856;15.716;2022-09-09T15:39:46;20.40;99.90
20147;DHT22;10234;50.856;15.716;2022-09-09T15:42:14;20.50;99.90
20147;DHT22;10234;50.856;15.716;2022-09-09T15:44:41;20.50;99.90
20147;DHT22;10234;50.856;15.716;2022-09-09T15:47:10;20.40;99.90
20147;DHT22;10234;50.856;15.716;2022-09-09T15:49:38;20.40;99.90
20147;DHT22;10234;50.856;15.716;2022-09-09T15:52:05;20.30;99.90
20147;DHT22;10234;50.856;15.716;2022-09-09T15:54:34;20.40;99.90
20147;DHT22;10234;50.856;15.716;2022-09-09T15:57:04;20.20;99.90
20147;DHT22;10234;50.856;15.716;2022-09-09T15:59:32;20.20;99.90